createdAt,value
2019-01-21T00:01:31.682Z,91.48
2019-01-21T00:03:58.465Z,91.33
2019-01-21T00:06:25.228Z,91.50
2019-01-21T00:08:52.049Z,91.78
2019-01-21T00:11:18.822Z,91.76
2019-01-21T00:13:45.609Z,91.40
2019-01-21T00:16:12.388Z,91.96
2019-01-21T00:18:39.157Z,92.07
2019-01-21T00:21:05.958Z,91.79
2019-01-21T00:23:32.744Z,90.87
2019-01-21T00:25:59.552Z,91.53
2019-01-21T00:28:26.316Z,91.89
2019-01-21T00:30:53.103Z,91.09
2019-01-21T00:33:19.945Z,91.66
2019-01-21T00:35:46.745Z,91.78
2019-01-21T00:38:13.532Z,90.70
2019-01-21T00:40:40.310Z,91.06
2019-01-21T00:43:07.085Z,91.61
2019-01-21T00:45:33.898Z,91.24
2019-01-21T00:48:00.661Z,90.57
2019-01-21T00:50:27.451Z,91.23
2019-01-21T00:52:54.212Z,90.81
2019-01-21T00:55:21.023Z,91.14
2019-01-21T00:57:47.810Z,90.94
2019-01-21T01:00:18.211Z,91.30
2019-01-21T01:02:45.027Z,91.47
2019-01-21T01:05:11.864Z,90.97
2019-01-21T01:07:38.988Z,90.78
2019-01-21T01:10:06.397Z,91.28
2019-01-21T01:12:33.174Z,92.08
2019-01-21T01:14:59.997Z,92.03
2019-01-21T01:17:26.827Z,91.80
2019-01-21T01:19:53.627Z,92.74
2019-01-21T01:22:20.396Z,92.77
2019-01-21T01:24:47.218Z,92.07
2019-01-21T01:27:14.028Z,92.25
2019-01-21T01:29:40.787Z,92.87
2019-01-21T01:32:07.602Z,92.48
2019-01-21T01:34:34.373Z,92.22
2019-01-21T01:37:01.178Z,92.27
2019-01-21T01:39:28.077Z,92.99
2019-01-21T01:41:54.896Z,92.69
2019-01-21T01:44:21.721Z,92.60
2019-01-21T01:46:48.504Z,92.37
2019-01-21T01:49:15.317Z,92.40
2019-01-21T01:51:42.102Z,92.98
2019-01-21T01:54:08.890Z,92.76
2019-01-21T01:56:35.705Z,92.38
2019-01-21T01:59:02.489Z,92.15
2019-01-21T02:01:29.293Z,93.00
2019-01-21T02:03:56.065Z,92.91
2019-01-21T02:06:22.890Z,93.02
2019-01-21T02:08:49.922Z,93.41
2019-01-21T02:11:16.780Z,93.15
2019-01-21T02:13:43.553Z,93.52
2019-01-21T02:16:10.382Z,93.10
2019-01-21T02:18:37.170Z,93.68
2019-01-21T02:21:04.365Z,93.56
2019-01-21T02:23:35.265Z,94.04
2019-01-21T02:26:03.521Z,93.34
2019-01-21T02:28:44.577Z,93.57
2019-01-21T02:31:22.962Z,93.62
2019-01-21T02:34:04.549Z,93.59
2019-01-21T02:36:46.317Z,93.74
2019-01-21T02:39:27.869Z,93.80
2019-01-21T02:42:07.486Z,93.41
2019-01-21T02:44:47.909Z,93.72
2019-01-21T02:47:23.143Z,94.26
2019-01-21T02:50:01.062Z,94.29
2019-01-21T02:52:39.244Z,94.39
2019-01-21T02:55:34.045Z,94.44
2019-01-21T02:58:12.893Z,94.13
2019-01-21T03:01:11.648Z,94.51
2019-01-21T03:03:48.332Z,94.61
2019-01-21T03:06:43.255Z,93.72
2019-01-21T03:09:24.049Z,94.08
2019-01-21T03:12:19.182Z,93.98
2019-01-21T03:14:58.398Z,93.64
2019-01-21T03:17:45.630Z,93.93
2019-01-21T03:20:22.959Z,93.66
2019-01-21T03:23:02.382Z,93.62
2019-01-21T03:25:44.646Z,93.04
2019-01-21T03:28:37.095Z,93.25
2019-01-21T03:31:29.285Z,93.37
2019-01-21T03:34:17.679Z,92.97
2019-01-21T03:37:03.235Z,92.61
2019-01-21T03:40:06.065Z,92.70
2019-01-21T03:42:47.094Z,93.31
2019-01-21T03:45:26.077Z,93.36
2019-01-21T03:48:02.985Z,93.57
2019-01-21T03:50:59.199Z,94.35
2019-01-21T03:54:06.869Z,94.35
2019-01-21T03:56:40.206Z,93.67
2019-01-21T03:59:33.533Z,93.94
2019-01-21T04:02:20.451Z,94.71
2019-01-21T04:04:59.302Z,94.72
2019-01-21T04:07:38.765Z,95.04
2019-01-21T04:10:35.958Z,95.14
2019-01-21T04:13:19.385Z,94.52
2019-01-21T04:16:11.113Z,94.99
2019-01-21T04:18:59.389Z,95.03
2019-01-21T04:21:53.634Z,94.44
2019-01-21T04:25:02.045Z,94.36
2019-01-21T04:27:54.763Z,94.81
2019-01-21T04:30:31.758Z,94.78
2019-01-21T04:33:10.228Z,94.95
2019-01-21T04:36:18.134Z,94.54
2019-01-21T04:38:58.765Z,95.01
2019-01-21T04:41:42.759Z,95.37
2019-01-21T04:44:38.822Z,95.71
2019-01-21T04:47:22.255Z,95.11
2019-01-21T04:50:22.672Z,95.14
2019-01-21T04:53:09.514Z,94.33
2019-01-21T04:56:16.530Z,94.70
2019-01-21T04:59:07.736Z,94.28
2019-01-21T05:01:47.225Z,94.20
2019-01-21T05:04:28.282Z,94.05
2019-01-21T05:07:10.209Z,94.90
2019-01-21T05:09:54.158Z,94.66
2019-01-21T05:12:38.900Z,94.68
2019-01-21T05:15:19.426Z,94.09
2019-01-21T05:18:25.408Z,94.26
2019-01-21T05:21:18.547Z,93.89
2019-01-21T05:24:11.190Z,94.28
2019-01-21T05:26:49.163Z,94.10
2019-01-21T05:29:23.971Z,94.78
2019-01-21T05:32:18.162Z,94.39
2019-01-21T05:35:11.179Z,94.39
2019-01-21T05:37:48.910Z,94.10
2019-01-21T05:40:37.685Z,93.90
2019-01-21T05:43:32.595Z,93.92
2019-01-21T05:46:28.720Z,94.07
2019-01-21T05:49:17.984Z,94.17
2019-01-21T05:52:17.224Z,93.94
2019-01-21T05:55:02.049Z,94.19
2019-01-21T05:57:41.075Z,94.31
2019-01-21T06:00:17.794Z,93.30
2019-01-21T06:02:58.306Z,93.68
2019-01-21T06:05:41.038Z,93.19
2019-01-21T06:08:28.425Z,93.64
2019-01-21T06:11:04.320Z,93.45
2019-01-21T06:13:47.125Z,93.54
2019-01-21T06:16:39.736Z,93.91
2019-01-21T06:19:32.637Z,93.93
2019-01-21T06:22:25.830Z,94.11
2019-01-21T06:25:26.004Z,93.45
2019-01-21T06:28:07.816Z,93.65
2019-01-21T06:30:46.217Z,94.15
2019-01-21T06:33:45.226Z,93.81
2019-01-21T06:36:21.541Z,94.21
2019-01-21T06:39:15.668Z,94.06
2019-01-21T06:42:10.869Z,93.36
2019-01-21T06:44:52.529Z,92.97
2019-01-21T06:47:46.037Z,93.11
2019-01-21T06:50:22.181Z,93.50
2019-01-21T06:53:08.461Z,93.03
2019-01-21T06:55:48.588Z,92.99
2019-01-21T06:58:50.576Z,93.15
2019-01-21T07:01:45.272Z,92.94
2019-01-21T07:04:52.840Z,92.92
2019-01-21T07:07:51.905Z,92.80
2019-01-21T07:10:44.644Z,92.15
2019-01-21T07:13:25.146Z,92.21
2019-01-21T07:16:07.232Z,92.33
2019-01-21T07:18:54.917Z,92.73
2019-01-21T07:21:36.444Z,92.44
2019-01-21T07:24:31.068Z,92.32
2019-01-21T07:27:39.885Z,92.00
2019-01-21T07:30:20.169Z,92.30
2019-01-21T07:33:17.829Z,93.01
2019-01-21T07:36:19.522Z,91.94
2019-01-21T07:38:55.145Z,92.56
2019-01-21T07:41:43.549Z,92.33
2019-01-21T07:44:36.058Z,92.63
2019-01-21T07:47:29.901Z,91.44
2019-01-21T07:50:10.658Z,91.59
2019-01-21T07:53:24.730Z,91.27
2019-01-21T07:56:20.589Z,91.46
2019-01-21T07:59:15.322Z,90.98
2019-01-21T08:01:51.065Z,91.54
2019-01-21T08:04:44.050Z,91.21
2019-01-21T08:07:25.134Z,90.65
2019-01-21T08:10:27.037Z,90.86
2019-01-21T08:13:29.149Z,91.43
2019-01-21T08:16:33.456Z,90.45
2019-01-21T08:19:24.057Z,91.00
2019-01-21T08:22:10.749Z,90.38
2019-01-21T08:24:57.919Z,90.47
2019-01-21T08:27:51.176Z,90.67
2019-01-21T08:30:27.201Z,89.08
2019-01-21T08:33:23.037Z,90.34
2019-01-21T08:36:11.167Z,90.40
2019-01-21T08:39:08.409Z,89.85
2019-01-21T08:41:58.941Z,90.00
2019-01-21T08:44:50.994Z,89.86
2019-01-21T08:47:32.829Z,89.57
2019-01-21T08:50:11.784Z,88.85
2019-01-21T08:53:08.526Z,89.48
2019-01-21T08:55:48.670Z,89.41
2019-01-21T08:58:32.937Z,89.06
2019-01-21T09:01:25.690Z,88.91
2019-01-21T09:04:24.808Z,87.63
2019-01-21T09:07:06.261Z,88.28
2019-01-21T09:09:43.865Z,89.06
2019-01-21T09:12:20.561Z,88.67
2019-01-21T09:14:58.213Z,87.73
2019-01-21T09:17:41.652Z,87.55
2019-01-21T09:20:17.473Z,87.77
2019-01-21T09:22:53.476Z,86.95
2019-01-21T09:25:30.821Z,88.34
2019-01-21T09:28:11.428Z,86.12
2019-01-21T09:31:11.028Z,85.87
2019-01-21T09:33:48.328Z,85.41
2019-01-21T09:36:45.580Z,85.96
2019-01-21T09:39:29.533Z,84.86
2019-01-21T09:42:04.924Z,84.23
2019-01-21T09:44:42.340Z,85.33
2019-01-21T09:47:08.340Z,85.28
2019-01-21T09:49:34.321Z,86.17
2019-01-21T09:52:05.146Z,84.67
2019-01-21T09:54:31.393Z,83.87
2019-01-21T09:56:58.196Z,83.94
2019-01-21T09:59:24.961Z,82.92
2019-01-21T10:01:53.868Z,83.71
2019-01-21T10:04:25.401Z,82.23
2019-01-21T10:07:02.796Z,83.09
2019-01-21T10:09:41.835Z,83.54
2019-01-21T10:12:44.064Z,82.14
2019-01-21T10:15:16.885Z,82.54
2019-01-21T10:18:02.017Z,83.18
2019-01-21T10:21:00.417Z,83.21
2019-01-21T10:23:55.121Z,82.05
2019-01-21T10:26:42.136Z,82.47
2019-01-21T10:29:24.772Z,79.81
2019-01-21T10:32:20.273Z,80.37
2019-01-21T10:35:14.573Z,81.04
2019-01-21T10:37:58.411Z,80.29
2019-01-21T10:40:53.845Z,79.72
2019-01-21T10:43:40.138Z,79.93
2019-01-21T10:46:21.397Z,79.39
2019-01-21T10:49:00.026Z,79.43
2019-01-21T10:51:54.153Z,79.53
2019-01-21T10:54:34.449Z,80.02
2019-01-21T10:57:18.384Z,78.07
2019-01-21T11:00:17.368Z,78.69
2019-01-21T11:03:05.033Z,76.55
2019-01-21T11:05:42.990Z,77.02
2019-01-21T11:08:28.718Z,77.42
2019-01-21T11:11:06.048Z,78.29
2019-01-21T11:14:04.426Z,78.08
2019-01-21T11:16:48.865Z,76.59
2019-01-21T11:19:30.874Z,78.59
2019-01-21T11:22:06.084Z,76.25
2019-01-21T11:24:49.065Z,78.02
2019-01-21T11:27:41.637Z,76.06
2019-01-21T11:30:50.338Z,75.48
2019-01-21T11:33:49.952Z,76.94
2019-01-21T11:36:36.476Z,76.73
2019-01-21T11:39:38.725Z,77.04
2019-01-21T11:42:16.970Z,76.66
2019-01-21T11:44:59.489Z,75.59
2019-01-21T11:47:41.089Z,74.18
2019-01-21T11:50:34.693Z,74.13
2019-01-21T11:53:17.113Z,74.29
2019-01-21T11:55:53.170Z,74.34
2019-01-21T11:58:45.581Z,72.83
2019-01-21T12:01:28.135Z,74.62
2019-01-21T12:04:02.901Z,73.76
2019-01-21T12:06:36.782Z,72.27
2019-01-21T12:09:14.117Z,72.48
2019-01-21T12:11:46.866Z,72.17
2019-01-21T12:14:21.814Z,71.39
2019-01-21T12:17:04.016Z,72.67
2019-01-21T12:19:44.809Z,71.64
2019-01-21T12:22:41.786Z,72.16
2019-01-21T12:25:31.833Z,71.88
2019-01-21T12:28:20.457Z,71.75
2019-01-21T12:31:11.373Z,73.04
2019-01-21T12:33:50.016Z,71.83
2019-01-21T12:36:40.325Z,70.89
2019-01-21T12:39:18.735Z,72.68
2019-01-21T12:41:54.976Z,72.36
2019-01-21T12:44:51.994Z,72.16
2019-01-21T12:47:24.882Z,71.02
2019-01-21T12:50:03.238Z,69.69
2019-01-21T12:52:36.825Z,69.85
2019-01-21T12:55:14.317Z,71.29
2019-01-21T12:58:04.798Z,71.14
2019-01-21T13:00:46.714Z,69.91
2019-01-21T13:03:29.514Z,71.45
2019-01-21T13:06:11.120Z,71.64
2019-01-21T13:09:03.959Z,70.47
2019-01-21T13:11:59.398Z,71.18
2019-01-21T13:14:39.662Z,70.62
2019-01-21T13:17:23.348Z,70.15
2019-01-21T13:20:15.400Z,71.13
2019-01-21T13:22:51.574Z,70.96
2019-01-21T13:25:45.990Z,70.28
2019-01-21T13:28:42.560Z,70.77
2019-01-21T13:31:31.376Z,71.15
2019-01-21T13:34:21.777Z,71.34
2019-01-21T13:37:09.065Z,71.35
2019-01-21T13:40:06.228Z,70.60
2019-01-21T13:43:01.256Z,71.00
2019-01-21T13:45:44.969Z,71.77
2019-01-21T13:48:20.696Z,70.33
2019-01-21T13:51:24.237Z,69.32
2019-01-21T13:54:16.065Z,69.84
2019-01-21T13:57:01.056Z,69.81
2019-01-21T13:59:43.233Z,69.27
2019-01-21T14:02:23.621Z,70.77
2019-01-21T14:05:10.287Z,70.40
2019-01-21T14:07:53.941Z,69.81
2019-01-21T14:10:29.459Z,70.00
2019-01-21T14:13:11.421Z,70.21
2019-01-21T14:15:44.317Z,70.59
2019-01-21T14:18:32.461Z,69.86
2019-01-21T14:21:14.212Z,69.29
2019-01-21T14:23:52.358Z,71.16
2019-01-21T14:26:47.821Z,69.56
2019-01-21T14:29:24.601Z,70.01
2019-01-21T14:32:26.265Z,70.46
2019-01-21T14:35:23.973Z,69.31
2019-01-21T14:38:23.605Z,70.09
2019-01-21T14:41:02.054Z,69.45
2019-01-21T14:43:42.004Z,71.03
2019-01-21T14:46:19.149Z,70.72
2019-01-21T14:49:18.926Z,71.99
2019-01-21T14:54:49.810Z,70.97
2019-01-21T14:57:52.454Z,70.64
2019-01-21T15:00:30.798Z,71.83
2019-01-21T15:03:29.818Z,70.77
2019-01-21T15:06:12.392Z,70.52
2019-01-21T15:09:04.540Z,70.50
2019-01-21T15:11:57.618Z,71.69
2019-01-21T15:14:41.743Z,70.56
2019-01-21T15:17:26.576Z,71.25
2019-01-21T15:20:01.399Z,72.68
2019-01-21T15:22:56.599Z,72.49
2019-01-21T15:25:37.908Z,71.71
2019-01-21T15:28:21.409Z,72.03
2019-01-21T15:31:02.721Z,72.55
2019-01-21T15:33:56.554Z,72.95
2019-01-21T15:36:48.291Z,73.92
2019-01-21T15:39:40.869Z,73.54
2019-01-21T15:42:34.361Z,74.05
2019-01-21T15:45:17.657Z,74.48
2019-01-21T15:47:57.212Z,74.45
2019-01-21T15:50:48.252Z,75.89
2019-01-21T15:53:24.692Z,75.10
2019-01-21T15:55:57.024Z,74.04
2019-01-21T15:59:07.996Z,75.90
2019-01-21T16:01:45.488Z,75.22
2019-01-21T16:04:27.333Z,75.88
2019-01-21T16:07:05.679Z,77.50
2019-01-21T16:10:01.157Z,77.78
2019-01-21T16:12:40.966Z,76.79
2019-01-21T16:15:18.456Z,78.63
2019-01-21T16:17:59.672Z,78.58
2019-01-21T16:20:49.825Z,77.88
2019-01-21T16:23:41.916Z,78.21
2019-01-21T16:26:16.063Z,77.77
2019-01-21T16:29:12.820Z,79.30
2019-01-21T16:31:51.013Z,79.80
2019-01-21T16:34:37.521Z,78.49
2019-01-21T16:37:17.056Z,80.31
2019-01-21T16:40:12.362Z,79.92
2019-01-21T16:42:39.216Z,79.05
2019-01-21T16:45:06.040Z,79.86
2019-01-21T16:47:32.864Z,79.93
2019-01-21T16:49:59.616Z,79.17
2019-01-21T16:52:26.467Z,78.82
2019-01-21T16:54:53.569Z,78.00
2019-01-21T16:57:20.352Z,77.32
2019-01-21T16:59:47.120Z,78.67
2019-01-21T17:02:13.860Z,78.18
2019-01-21T17:04:40.614Z,78.05
2019-01-21T17:07:07.356Z,79.89
2019-01-21T17:09:34.163Z,79.33
2019-01-21T17:12:00.893Z,79.04
2019-01-21T17:14:27.669Z,79.69
2019-01-21T17:16:54.425Z,78.72
2019-01-21T17:19:21.192Z,79.00
2019-01-21T17:21:47.965Z,81.56
2019-01-21T17:24:14.816Z,80.63
2019-01-21T17:26:41.796Z,80.12
2019-01-21T17:29:08.568Z,80.91
2019-01-21T17:31:35.468Z,81.06
2019-01-21T17:34:02.292Z,80.94
2019-01-21T17:36:29.112Z,81.44
2019-01-21T17:38:55.873Z,81.93
2019-01-21T17:41:22.611Z,83.36
2019-01-21T17:43:49.360Z,82.53
2019-01-21T17:46:16.113Z,82.25
2019-01-21T17:48:42.964Z,81.88
2019-01-21T17:51:09.743Z,82.73
2019-01-21T17:53:36.611Z,81.21
2019-01-21T17:56:04.039Z,81.42
2019-01-21T17:58:30.828Z,82.07
2019-01-21T18:00:57.649Z,80.68
2019-01-21T18:03:24.400Z,78.54
2019-01-21T18:05:51.382Z,81.69
2019-01-21T18:08:18.166Z,81.15
2019-01-21T18:10:45.500Z,80.42
2019-01-21T18:13:11.684Z,82.37
2019-01-21T18:15:38.449Z,80.81
2019-01-21T18:18:05.365Z,79.24
2019-01-21T18:20:32.163Z,82.16
2019-01-21T18:22:58.903Z,81.03
2019-01-21T18:25:25.662Z,81.66
2019-01-21T18:27:52.396Z,82.53
2019-01-21T18:30:22.364Z,82.09
2019-01-21T18:32:49.116Z,81.15
2019-01-21T18:35:15.884Z,82.92
2019-01-21T18:37:42.664Z,81.64
2019-01-21T18:40:11.916Z,81.66
2019-01-21T18:42:38.764Z,83.17
2019-01-21T18:45:06.024Z,81.97
2019-01-21T18:47:32.773Z,80.89
2019-01-21T18:49:59.644Z,83.59
2019-01-21T18:52:26.396Z,82.32
2019-01-21T18:54:53.135Z,80.92
2019-01-21T18:57:19.867Z,82.62
2019-01-21T18:59:46.632Z,82.38
2019-01-21T19:02:13.395Z,81.52
2019-01-21T19:04:40.148Z,83.95
2019-01-21T19:07:06.885Z,83.18
2019-01-21T19:09:33.668Z,83.33
2019-01-21T19:12:00.429Z,84.79
2019-01-21T19:14:27.181Z,85.12
2019-01-21T19:16:53.948Z,84.39
2019-01-21T19:19:20.718Z,86.29
2019-01-21T19:21:53.414Z,84.89
2019-01-21T19:24:14.195Z,83.56
2019-01-21T19:26:41.573Z,84.45
2019-01-21T19:29:08.314Z,83.23
2019-01-21T19:31:36.079Z,83.10
2019-01-21T19:34:03.088Z,84.24
2019-01-21T19:36:29.873Z,84.63
2019-01-21T19:38:56.604Z,84.07
2019-01-21T19:41:23.361Z,86.52
2019-01-21T19:43:50.088Z,86.80
2019-01-21T19:46:16.869Z,85.97
2019-01-21T19:48:43.600Z,86.31
2019-01-21T19:51:10.352Z,84.13
2019-01-21T19:53:37.102Z,83.05
2019-01-21T19:56:03.857Z,83.87
2019-01-21T19:58:30.585Z,83.38
2019-01-21T20:00:57.335Z,82.05
2019-01-21T20:03:24.148Z,83.58
2019-01-21T20:05:50.893Z,82.32
2019-01-21T20:08:17.620Z,83.07
2019-01-21T20:10:44.401Z,83.95
2019-01-21T20:13:11.132Z,83.26
2019-01-21T20:15:38.336Z,82.63
2019-01-21T20:18:04.664Z,83.88
2019-01-21T20:20:35.033Z,82.83
2019-01-21T20:23:01.763Z,83.61
2019-01-21T20:25:28.524Z,86.57
2019-01-21T20:27:55.260Z,85.67
2019-01-21T20:30:22.074Z,84.96
2019-01-21T20:32:48.813Z,86.16
2019-01-21T20:35:15.625Z,83.98
2019-01-21T20:37:42.378Z,82.67
2019-01-21T20:40:12.819Z,84.91
2019-01-21T20:42:39.588Z,84.20
2019-01-21T20:45:06.816Z,83.08
2019-01-21T20:47:33.604Z,82.79
2019-01-21T20:50:00.337Z,82.48
2019-01-21T20:52:27.097Z,83.92
2019-01-21T20:54:53.884Z,83.79
2019-01-21T20:57:20.588Z,84.01
2019-01-21T20:59:47.324Z,86.30
2019-01-21T21:02:14.081Z,85.10
2019-01-21T21:04:40.809Z,84.30
2019-01-21T21:07:07.576Z,85.46
2019-01-21T21:09:34.295Z,85.01
2019-01-21T21:12:01.053Z,84.04
2019-01-21T21:14:27.800Z,84.83
2019-01-21T21:16:54.557Z,83.75
2019-01-21T21:19:21.288Z,83.42
2019-01-21T21:21:48.061Z,85.21
2019-01-21T21:24:14.788Z,83.79
2019-01-21T21:26:42.201Z,84.93
2019-01-21T21:29:08.997Z,84.94
2019-01-21T21:31:35.781Z,83.63
2019-01-21T21:34:02.514Z,83.85
2019-01-21T21:36:29.272Z,85.17
2019-01-21T21:38:56.009Z,84.55
2019-01-21T21:41:22.752Z,82.56
2019-01-21T21:43:49.653Z,84.13
2019-01-21T21:46:16.416Z,83.03
2019-01-21T21:48:43.170Z,84.31
2019-01-21T21:51:09.920Z,84.11
2019-01-21T21:53:36.670Z,83.57
2019-01-21T21:56:03.420Z,85.55
2019-01-21T21:58:30.163Z,84.23
2019-01-21T22:00:56.922Z,83.37
2019-01-21T22:03:23.696Z,83.40
2019-01-21T22:05:50.536Z,83.25
2019-01-21T22:08:17.312Z,85.21
2019-01-21T22:10:44.040Z,84.09
2019-01-21T22:13:10.813Z,83.53
2019-01-21T22:15:37.580Z,84.11
2019-01-21T22:18:04.424Z,83.50
2019-01-21T22:20:31.166Z,83.33
2019-01-21T22:22:57.920Z,85.01
2019-01-21T22:25:24.672Z,84.68
2019-01-21T22:27:51.421Z,83.99
2019-01-21T22:30:21.292Z,84.98
2019-01-21T22:32:48.092Z,84.00
2019-01-21T22:35:14.853Z,83.36
2019-01-21T22:37:41.660Z,85.51
2019-01-21T22:40:11.020Z,85.39
2019-01-21T22:42:37.781Z,83.46
2019-01-21T22:45:05.017Z,85.03
2019-01-21T22:47:31.825Z,86.27
2019-01-21T22:49:58.605Z,87.30
2019-01-21T22:52:25.388Z,86.58
2019-01-21T22:54:52.134Z,86.45
2019-01-21T22:57:18.925Z,86.51
2019-01-21T22:59:45.699Z,85.55
2019-01-21T23:02:12.558Z,85.99
2019-01-21T23:04:39.327Z,86.33
2019-01-21T23:07:06.122Z,87.09
2019-01-21T23:09:32.997Z,85.74
2019-01-21T23:11:59.801Z,86.70
2019-01-21T23:14:26.557Z,86.92
2019-01-21T23:16:53.357Z,87.28
2019-01-21T23:19:20.128Z,85.00
2019-01-21T23:21:46.901Z,85.01
2019-01-21T23:24:16.466Z,85.06
2019-01-21T23:26:40.452Z,84.01
2019-01-21T23:29:07.246Z,85.76
2019-01-21T23:31:34.040Z,86.04
2019-01-21T23:34:00.806Z,85.98
2019-01-21T23:36:27.585Z,85.90
2019-01-21T23:38:54.344Z,86.05
2019-01-21T23:41:21.102Z,86.42
2019-01-21T23:43:47.872Z,85.76
2019-01-21T23:46:14.842Z,84.67
2019-01-21T23:48:41.635Z,84.96
2019-01-21T23:51:08.489Z,85.25
2019-01-21T23:53:35.268Z,84.41
2019-01-21T23:56:02.044Z,84.23
2019-01-21T23:58:28.808Z,83.04
